Weather at Tubuai Airport

Public forecast

Using degrees Celsius for public forecast. Weather courtesy of forecast.io.

Closest aviation weather report (METAR) to Tubuai Airport

Closest report is Mauke Airport, 477.2 nm (883.7 km) WNW. Retrieved 2021/08/02 19:00 UTC (33 minutes ago):

NCMK 021900Z AUTO 03005KT //// ////// 26/24 Q1010

Closest aviation forecast (TAF) to Tubuai Airport

Closest forecast is Faa'a International Airport, 349.0 nm (646.3 km) N. Retrieved 2021/08/02 18:06 UTC (1 hour ago):

TAF NTAA 021700Z 0218/0324 07010KT 9999 FEW025 BECMG 0303/0306 VRB05KT PROB30 TEMPO 0315/0319 3000 SHRA FEW018TCU BKN040